sensor_id;sensor_type;location;lat;lon;timestamp;P1;durP1;ratioP1;P2;durP2;ratioP2
78820;SDS011;68171;13.882;99.692;2023-05-20T00:00:17;14.68;;;10.73;;
78820;SDS011;68171;13.882;99.692;2023-05-20T00:01:21;19.63;;;11.63;;
78820;SDS011;68171;13.882;99.692;2023-05-20T00:02:28;18.60;;;11.13;;
78820;SDS011;68171;13.882;99.692;2023-05-20T00:03:33;18.58;;;12.07;;
78820;SDS011;68171;13.882;99.692;2023-05-20T00:04:39;15.77;;;11.05;;
78820;SDS011;68171;13.882;99.692;2023-05-20T00:05:44;16.00;;;11.32;;
78820;SDS011;68171;13.882;99.692;2023-05-20T00:06:50;15.32;;;11.65;;
78820;SDS011;68171;13.882;99.692;2023-05-20T00:07:56;15.82;;;11.38;;
78820;SDS011;68171;13.882;99.692;2023-05-20T00:09:02;15.93;;;11.20;;
78820;SDS011;68171;13.882;99.692;2023-05-20T00:10:10;15.85;;;11.15;;
78820;SDS011;68171;13.882;99.692;2023-05-20T00:11:14;17.23;;;11.35;;
78820;SDS011;68171;13.882;99.692;2023-05-20T00:12:20;17.27;;;12.02;;
78820;SDS011;68171;13.882;99.692;2023-05-20T00:13:25;16.00;;;11.60;;
78820;SDS011;68171;13.882;99.692;2023-05-20T00:14:31;18.90;;;11.65;;
78820;SDS011;68171;13.882;99.692;2023-05-20T00:15:35;15.82;;;11.05;;
78820;SDS011;68171;13.882;99.692;2023-05-20T00:16:41;16.10;;;12.20;;
78820;SDS011;68171;13.882;99.692;2023-05-20T00:17:46;16.52;;;11.52;;
78820;SDS011;68171;13.882;99.692;2023-05-20T00:18:52;16.02;;;11.90;;
78820;SDS011;68171;13.882;99.692;2023-05-20T00:19:58;16.67;;;11.40;;
78820;SDS011;68171;13.882;99.692;2023-05-20T00:21:04;16.58;;;11.50;;
78820;SDS011;68171;13.882;99.692;2023-05-20T00:22:09;16.25;;;12.02;;
78820;SDS011;68171;13.882;99.692;2023-05-20T00:23:14;16.30;;;11.98;;
78820;SDS011;68171;13.882;99.692;2023-05-20T00:24:19;19.40;;;11.40;;
78820;SDS011;68171;13.882;99.692;2023-05-20T00:25:27;18.58;;;11.63;;
78820;SDS011;68171;13.882;99.692;2023-05-20T00:26:33;18.33;;;11.15;;
78820;SDS011;68171;13.882;99.692;2023-05-20T00:27:39;16.52;;;11.15;;
78820;SDS011;68171;13.882;99.692;2023-05-20T00:28:44;17.17;;;11.50;;
78820;SDS011;68171;13.882;99.692;2023-05-20T00:29:50;17.42;;;11.35;;
78820;SDS011;68171;13.882;99.692;2023-05-20T00:30:55;14.83;;;10.53;;
78820;SDS011;68171;13.882;99.692;2023-05-20T00:32:01;13.48;;;10.90;;
78820;SDS011;68171;13.882;99.692;2023-05-20T00:33:05;15.98;;;11.27;;
78820;SDS011;68171;13.882;99.692;2023-05-20T00:34:11;16.98;;;11.48;;
78820;SDS011;68171;13.882;99.692;2023-05-20T00:35:17;15.50;;;11.05;;
78820;SDS011;68171;13.882;99.692;2023-05-20T00:36:22;15.05;;;11.02;;
78820;SDS011;68171;13.882;99.692;2023-05-20T00:37:28;16.08;;;10.77;;
78820;SDS011;68171;13.882;99.692;2023-05-20T00:38:32;16.48;;;11.32;;
78820;SDS011;68171;13.882;99.692;2023-05-20T00:39:38;20.65;;;11.75;;
78820;SDS011;68171;13.882;99.692;2023-05-20T00:40:45;18.60;;;11.68;;
78820;SDS011;68171;13.882;99.692;2023-05-20T00:41:50;18.27;;;10.93;;
78820;SDS011;68171;13.882;99.692;2023-05-20T00:42:55;16.02;;;11.05;;
78820;SDS011;68171;13.882;99.692;2023-05-20T00:44:01;16.58;;;11.02;;
78820;SDS011;68171;13.882;99.692;2023-05-20T00:45:06;18.98;;;12.35;;
78820;SDS011;68171;13.882;99.692;2023-05-20T00:46:13;17.65;;;11.57;;
78820;SDS011;68171;13.882;99.692;2023-05-20T00:47:18;16.75;;;11.05;;
78820;SDS011;68171;13.882;99.692;2023-05-20T00:48:24;17.48;;;11.25;;
78820;SDS011;68171;13.882;99.692;2023-05-20T00:49:29;18.02;;;11.32;;
78820;SDS011;68171;13.882;99.692;2023-05-20T00:50:35;16.75;;;11.32;;
78820;SDS011;68171;13.882;99.692;2023-05-20T00:51:41;17.40;;;11.30;;
78820;SDS011;68171;13.882;99.692;2023-05-20T00:52:45;16.97;;;11.60;;
78820;SDS011;68171;13.882;99.692;2023-05-20T00:53:55;14.23;;;11.45;;
78820;SDS011;68171;13.882;99.692;2023-05-20T00:55:00;14.32;;;10.25;;
78820;SDS011;68171;13.882;99.692;2023-05-20T00:56:08;15.00;;;11.07;;
78820;SDS011;68171;13.882;99.692;2023-05-20T00:57:13;16.80;;;10.75;;
78820;SDS011;68171;13.882;99.692;2023-05-20T00:58:19;18.17;;;11.13;;
78820;SDS011;68171;13.882;99.692;2023-05-20T00:59:24;17.83;;;11.45;;
78820;SDS011;68171;13.882;99.692;2023-05-20T01:00:30;15.90;;;10.73;;
78820;SDS011;68171;13.882;99.692;2023-05-20T01:01:35;16.50;;;10.77;;
78820;SDS011;68171;13.882;99.692;2023-05-20T01:02:41;17.70;;;10.73;;
78820;SDS011;68171;13.882;99.692;2023-05-20T01:03:46;15.80;;;10.83;;
78820;SDS011;68171;13.882;99.692;2023-05-20T01:04:52;14.02;;;10.55;;
78820;SDS011;68171;13.882;99.692;2023-05-20T01:05:58;17.92;;;10.48;;
78820;SDS011;68171;13.882;99.692;2023-05-20T01:07:04;16.73;;;11.20;;
78820;SDS011;68171;13.882;99.692;2023-05-20T01:08:09;15.77;;;10.85;;
78820;SDS011;68171;13.882;99.692;2023-05-20T01:09:15;15.45;;;10.45;;
78820;SDS011;68171;13.882;99.692;2023-05-20T01:10:20;14.80;;;10.65;;
78820;SDS011;68171;13.882;99.692;2023-05-20T01:11:30;15.48;;;10.30;;
78820;SDS011;68171;13.882;99.692;2023-05-20T01:12:38;14.65;;;10.68;;
78820;SDS011;68171;13.882;99.692;2023-05-20T01:13:49;13.48;;;9.70;;
78820;SDS011;68171;13.882;99.692;2023-05-20T01:14:57;23.13;;;10.50;;
78820;SDS011;68171;13.882;99.692;2023-05-20T01:16:05;13.70;;;10.10;;
78820;SDS011;68171;13.882;99.692;2023-05-20T01:17:11;15.52;;;10.70;;
78820;SDS011;68171;13.882;99.692;2023-05-20T01:18:19;14.57;;;10.07;;
78820;SDS011;68171;13.882;99.692;2023-05-20T01:19:26;16.77;;;9.90;;
78820;SDS011;68171;13.882;99.692;2023-05-20T01:20:40;16.00;;;9.85;;
78820;SDS011;68171;13.882;99.692;2023-05-20T01:21:45;17.95;;;10.32;;
78820;SDS011;68171;13.882;99.692;2023-05-20T01:22:53;13.82;;;9.57;;
78820;SDS011;68171;13.882;99.692;2023-05-20T01:24:00;14.20;;;10.40;;
78820;SDS011;68171;13.882;99.692;2023-05-20T01:25:10;14.70;;;10.23;;
78820;SDS011;68171;13.882;99.692;2023-05-20T01:26:16;15.37;;;9.67;;
78820;SDS011;68171;13.882;99.692;2023-05-20T01:27:21;14.70;;;10.05;;
78820;SDS011;68171;13.882;99.692;2023-05-20T01:28:28;14.10;;;9.45;;
78820;SDS011;68171;13.882;99.692;2023-05-20T01:29:32;15.13;;;10.43;;
78820;SDS011;68171;13.882;99.692;2023-05-20T01:30:41;15.48;;;9.65;;
78820;SDS011;68171;13.882;99.692;2023-05-20T01:31:48;13.43;;;9.98;;
78820;SDS011;68171;13.882;99.692;2023-05-20T01:32:58;15.38;;;10.02;;
78820;SDS011;68171;13.882;99.692;2023-05-20T01:34:06;15.65;;;9.05;;
78820;SDS011;68171;13.882;99.692;2023-05-20T01:35:11;17.38;;;10.18;;
78820;SDS011;68171;13.882;99.692;2023-05-20T01:36:17;16.90;;;10.00;;
78820;SDS011;68171;13.882;99.692;2023-05-20T01:37:23;14.13;;;10.13;;
78820;SDS011;68171;13.882;99.692;2023-05-20T01:38:31;12.80;;;9.90;;
78820;SDS011;68171;13.882;99.692;2023-05-20T01:39:36;15.48;;;9.68;;
78820;SDS011;68171;13.882;99.692;2023-05-20T01:40:43;18.10;;;10.27;;
78820;SDS011;68171;13.882;99.692;2023-05-20T01:41:49;16.17;;;10.40;;
78820;SDS011;68171;13.882;99.692;2023-05-20T01:42:55;14.25;;;10.75;;
78820;SDS011;68171;13.882;99.692;2023-05-20T01:44:01;14.45;;;10.13;;
78820;SDS011;68171;13.882;99.692;2023-05-20T01:45:08;12.90;;;10.05;;
78820;SDS011;68171;13.882;99.692;2023-05-20T01:46:15;13.55;;;9.57;;
78820;SDS011;68171;13.882;99.692;2023-05-20T01:47:19;17.30;;;9.80;;
78820;SDS011;68171;13.882;99.692;2023-05-20T01:48:25;16.83;;;10.30;;
78820;SDS011;68171;13.882;99.692;2023-05-20T01:49:30;14.02;;;9.93;;
78820;SDS011;68171;13.882;99.692;2023-05-20T01:50:36;15.27;;;10.27;;
78820;SDS011;68171;13.882;99.692;2023-05-20T01:51:40;15.98;;;10.52;;
78820;SDS011;68171;13.882;99.692;2023-05-20T01:52:46;14.88;;;9.70;;
78820;SDS011;68171;13.882;99.692;2023-05-20T01:53:52;12.63;;;8.98;;
78820;SDS011;68171;13.882;99.692;2023-05-20T01:54:58;14.90;;;9.45;;
78820;SDS011;68171;13.882;99.692;2023-05-20T01:56:04;15.10;;;9.05;;
78820;SDS011;68171;13.882;99.692;2023-05-20T01:57:10;17.42;;;9.88;;
78820;SDS011;68171;13.882;99.692;2023-05-20T01:58:15;13.70;;;9.60;;
78820;SDS011;68171;13.882;99.692;2023-05-20T01:59:21;14.33;;;9.47;;
78820;SDS011;68171;13.882;99.692;2023-05-20T02:00:26;14.30;;;10.27;;
78820;SDS011;68171;13.882;99.692;2023-05-20T02:01:32;15.07;;;9.90;;
78820;SDS011;68171;13.882;99.692;2023-05-20T02:02:37;13.93;;;9.38;;
78820;SDS011;68171;13.882;99.692;2023-05-20T02:03:43;14.75;;;9.60;;
78820;SDS011;68171;13.882;99.692;2023-05-20T02:04:50;15.10;;;9.80;;
78820;SDS011;68171;13.882;99.692;2023-05-20T02:05:58;12.73;;;9.75;;
78820;SDS011;68171;13.882;99.692;2023-05-20T02:07:03;16.42;;;9.90;;
78820;SDS011;68171;13.882;99.692;2023-05-20T02:08:09;15.43;;;10.10;;
78820;SDS011;68171;13.882;99.692;2023-05-20T02:09:16;15.98;;;10.38;;
78820;SDS011;68171;13.882;99.692;2023-05-20T02:10:22;13.70;;;9.23;;
78820;SDS011;68171;13.882;99.692;2023-05-20T02:11:27;13.07;;;10.10;;
78820;SDS011;68171;13.882;99.692;2023-05-20T02:12:33;16.40;;;10.23;;
78820;SDS011;68171;13.882;99.692;2023-05-20T02:13:37;17.50;;;10.82;;
78820;SDS011;68171;13.882;99.692;2023-05-20T02:14:44;17.58;;;10.15;;
78820;SDS011;68171;13.882;99.692;2023-05-20T02:15:49;13.13;;;9.32;;
78820;SDS011;68171;13.882;99.692;2023-05-20T02:16:55;14.15;;;10.38;;
78820;SDS011;68171;13.882;99.692;2023-05-20T02:18:00;14.10;;;10.65;;
78820;SDS011;68171;13.882;99.692;2023-05-20T02:19:07;15.35;;;10.23;;
78820;SDS011;68171;13.882;99.692;2023-05-20T02:20:14;19.45;;;10.85;;
78820;SDS011;68171;13.882;99.692;2023-05-20T02:21:20;14.33;;;9.70;;
78820;SDS011;68171;13.882;99.692;2023-05-20T02:22:25;19.23;;;10.23;;
78820;SDS011;68171;13.882;99.692;2023-05-20T02:23:31;14.93;;;9.52;;
78820;SDS011;68171;13.882;99.692;2023-05-20T02:24:37;14.63;;;9.82;;
78820;SDS011;68171;13.882;99.692;2023-05-20T02:25:44;15.75;;;10.50;;
78820;SDS011;68171;13.882;99.692;2023-05-20T02:26:49;12.43;;;9.82;;
78820;SDS011;68171;13.882;99.692;2023-05-20T02:27:56;13.65;;;9.38;;
78820;SDS011;68171;13.882;99.692;2023-05-20T02:29:01;15.23;;;9.85;;
78820;SDS011;68171;13.882;99.692;2023-05-20T02:30:07;13.73;;;9.65;;
78820;SDS011;68171;13.882;99.692;2023-05-20T02:31:13;14.27;;;9.68;;
78820;SDS011;68171;13.882;99.692;2023-05-20T02:32:18;14.60;;;10.17;;
78820;SDS011;68171;13.882;99.692;2023-05-20T02:33:29;16.48;;;10.00;;
78820;SDS011;68171;13.882;99.692;2023-05-20T02:34:34;18.88;;;10.32;;
78820;SDS011;68171;13.882;99.692;2023-05-20T02:35:40;15.32;;;9.98;;
78820;SDS011;68171;13.882;99.692;2023-05-20T02:36:44;13.65;;;9.48;;
78820;SDS011;68171;13.882;99.692;2023-05-20T02:37:50;13.85;;;9.32;;
78820;SDS011;68171;13.882;99.692;2023-05-20T02:38:55;14.20;;;9.32;;
78820;SDS011;68171;13.882;99.692;2023-05-20T02:40:05;13.45;;;9.27;;
78820;SDS011;68171;13.882;99.692;2023-05-20T02:41:12;16.95;;;10.40;;
78820;SDS011;68171;13.882;99.692;2023-05-20T02:42:17;15.98;;;10.13;;
78820;SDS011;68171;13.882;99.692;2023-05-20T02:43:22;16.70;;;9.70;;
78820;SDS011;68171;13.882;99.692;2023-05-20T02:44:30;14.65;;;10.68;;
78820;SDS011;68171;13.882;99.692;2023-05-20T02:45:35;13.57;;;9.25;;
78820;SDS011;68171;13.882;99.692;2023-05-20T02:46:41;14.98;;;9.60;;
78820;SDS011;68171;13.882;99.692;2023-05-20T02:47:45;15.27;;;9.57;;
78820;SDS011;68171;13.882;99.692;2023-05-20T02:48:51;14.82;;;10.02;;
78820;SDS011;68171;13.882;99.692;2023-05-20T02:49:56;16.67;;;9.85;;
78820;SDS011;68171;13.882;99.692;2023-05-20T02:51:02;16.88;;;10.32;;
78820;SDS011;68171;13.882;99.692;2023-05-20T02:52:08;17.83;;;9.95;;
78820;SDS011;68171;13.882;99.692;2023-05-20T02:53:14;19.27;;;10.05;;
78820;SDS011;68171;13.882;99.692;2023-05-20T02:54:18;14.47;;;9.37;;
78820;SDS011;68171;13.882;99.692;2023-05-20T02:55:26;14.77;;;9.40;;
78820;SDS011;68171;13.882;99.692;2023-05-20T02:56:30;15.23;;;9.40;;
78820;SDS011;68171;13.882;99.692;2023-05-20T02:57:36;15.35;;;9.90;;
78820;SDS011;68171;13.882;99.692;2023-05-20T02:58:41;16.42;;;10.25;;
78820;SDS011;68171;13.882;99.692;2023-05-20T02:59:47;15.88;;;9.68;;
78820;SDS011;68171;13.882;99.692;2023-05-20T03:00:52;15.00;;;9.30;;
78820;SDS011;68171;13.882;99.692;2023-05-20T03:02:02;16.02;;;10.48;;
78820;SDS011;68171;13.882;99.692;2023-05-20T03:03:06;13.30;;;10.13;;
78820;SDS011;68171;13.882;99.692;2023-05-20T03:04:13;12.82;;;9.38;;
78820;SDS011;68171;13.882;99.692;2023-05-20T03:05:18;13.97;;;9.30;;
78820;SDS011;68171;13.882;99.692;2023-05-20T03:06:24;13.23;;;9.20;;
78820;SDS011;68171;13.882;99.692;2023-05-20T03:07:29;18.17;;;10.25;;
78820;SDS011;68171;13.882;99.692;2023-05-20T03:08:36;19.02;;;10.27;;
78820;SDS011;68171;13.882;99.692;2023-05-20T03:09:45;15.77;;;9.70;;
78820;SDS011;68171;13.882;99.692;2023-05-20T03:10:52;13.57;;;9.68;;
78820;SDS011;68171;13.882;99.692;2023-05-20T03:11:58;16.58;;;10.05;;
78820;SDS011;68171;13.882;99.692;2023-05-20T03:13:03;15.98;;;9.07;;
78820;SDS011;68171;13.882;99.692;2023-05-20T03:14:10;13.68;;;9.07;;
78820;SDS011;68171;13.882;99.692;2023-05-20T03:15:15;15.65;;;9.32;;
78820;SDS011;68171;13.882;99.692;2023-05-20T03:16:21;15.40;;;10.33;;
78820;SDS011;68171;13.882;99.692;2023-05-20T03:17:27;13.38;;;9.25;;
78820;SDS011;68171;13.882;99.692;2023-05-20T03:18:32;14.73;;;10.00;;
78820;SDS011;68171;13.882;99.692;2023-05-20T03:19:37;15.40;;;10.25;;
78820;SDS011;68171;13.882;99.692;2023-05-20T03:20:44;15.02;;;10.25;;
78820;SDS011;68171;13.882;99.692;2023-05-20T03:21:49;14.80;;;9.98;;
78820;SDS011;68171;13.882;99.692;2023-05-20T03:22:55;17.75;;;10.07;;
78820;SDS011;68171;13.882;99.692;2023-05-20T03:24:00;14.90;;;11.23;;
78820;SDS011;68171;13.882;99.692;2023-05-20T03:25:06;16.52;;;10.80;;
78820;SDS011;68171;13.882;99.692;2023-05-20T03:26:15;18.33;;;11.25;;
78820;SDS011;68171;13.882;99.692;2023-05-20T03:27:20;15.57;;;10.83;;
78820;SDS011;68171;13.882;99.692;2023-05-20T03:28:28;17.45;;;11.00;;
78820;SDS011;68171;13.882;99.692;2023-05-20T03:29:36;15.35;;;9.95;;
78820;SDS011;68171;13.882;99.692;2023-05-20T03:30:40;16.45;;;10.95;;
78820;SDS011;68171;13.882;99.692;2023-05-20T03:31:46;17.13;;;11.52;;
78820;SDS011;68171;13.882;99.692;2023-05-20T03:32:52;13.52;;;10.32;;
78820;SDS011;68171;13.882;99.692;2023-05-20T03:33:58;13.57;;;10.38;;
78820;SDS011;68171;13.882;99.692;2023-05-20T03:35:02;13.98;;;10.15;;
78820;SDS011;68171;13.882;99.692;2023-05-20T03:36:09;15.88;;;10.48;;
78820;SDS011;68171;13.882;99.692;2023-05-20T03:37:15;17.50;;;12.43;;
78820;SDS011;68171;13.882;99.692;2023-05-20T03:38:19;19.50;;;12.03;;
78820;SDS011;68171;13.882;99.692;2023-05-20T03:39:25;17.40;;;11.50;;
78820;SDS011;68171;13.882;99.692;2023-05-20T03:40:30;14.20;;;11.10;;
78820;SDS011;68171;13.882;99.692;2023-05-20T03:41:37;16.67;;;11.80;;
78820;SDS011;68171;13.882;99.692;2023-05-20T03:42:43;18.52;;;11.90;;
78820;SDS011;68171;13.882;99.692;2023-05-20T03:43:48;15.82;;;11.82;;
78820;SDS011;68171;13.882;99.692;2023-05-20T03:44:54;23.10;;;11.63;;
78820;SDS011;68171;13.882;99.692;2023-05-20T03:45:58;15.93;;;11.23;;
78820;SDS011;68171;13.882;99.692;2023-05-20T03:47:04;15.50;;;11.38;;
78820;SDS011;68171;13.882;99.692;2023-05-20T03:48:12;13.88;;;11.32;;
78820;SDS011;68171;13.882;99.692;2023-05-20T03:49:17;15.87;;;11.43;;
78820;SDS011;68171;13.882;99.692;2023-05-20T03:50:22;15.73;;;10.93;;
78820;SDS011;68171;13.882;99.692;2023-05-20T03:51:28;14.90;;;11.38;;
78820;SDS011;68171;13.882;99.692;2023-05-20T03:52:32;18.08;;;11.90;;
78820;SDS011;68171;13.882;99.692;2023-05-20T03:53:38;20.73;;;12.15;;
78820;SDS011;68171;13.882;99.692;2023-05-20T03:54:44;15.70;;;11.40;;
78820;SDS011;68171;13.882;99.692;2023-05-20T03:55:49;16.75;;;10.90;;
78820;SDS011;68171;13.882;99.692;2023-05-20T03:56:57;18.65;;;12.10;;
78820;SDS011;68171;13.882;99.692;2023-05-20T03:58:02;18.05;;;11.73;;
78820;SDS011;68171;13.882;99.692;2023-05-20T03:59:09;17.85;;;11.63;;
78820;SDS011;68171;13.882;99.692;2023-05-20T04:00:13;16.10;;;11.23;;
78820;SDS011;68171;13.882;99.692;2023-05-20T04:01:20;15.93;;;10.70;;
78820;SDS011;68171;13.882;99.692;2023-05-20T04:02:27;19.02;;;11.18;;
78820;SDS011;68171;13.882;99.692;2023-05-20T04:03:33;14.13;;;10.32;;
78820;SDS011;68171;13.882;99.692;2023-05-20T04:04:38;16.85;;;11.25;;
78820;SDS011;68171;13.882;99.692;2023-05-20T04:05:44;16.52;;;11.88;;
78820;SDS011;68171;13.882;99.692;2023-05-20T04:06:49;17.80;;;12.18;;
78820;SDS011;68171;13.882;99.692;2023-05-20T04:07:56;16.80;;;11.95;;
78820;SDS011;68171;13.882;99.692;2023-05-20T04:09:00;16.48;;;11.55;;
78820;SDS011;68171;13.882;99.692;2023-05-20T04:10:07;17.50;;;11.23;;
78820;SDS011;68171;13.882;99.692;2023-05-20T04:11:12;17.20;;;11.17;;
78820;SDS011;68171;13.882;99.692;2023-05-20T04:12:19;14.93;;;10.27;;
78820;SDS011;68171;13.882;99.692;2023-05-20T04:13:24;15.15;;;10.82;;
78820;SDS011;68171;13.882;99.692;2023-05-20T04:14:30;17.33;;;10.63;;
78820;SDS011;68171;13.882;99.692;2023-05-20T04:15:36;17.02;;;10.70;;
78820;SDS011;68171;13.882;99.692;2023-05-20T04:16:43;19.05;;;10.90;;
78820;SDS011;68171;13.882;99.692;2023-05-20T04:17:47;15.18;;;10.32;;
78820;SDS011;68171;13.882;99.692;2023-05-20T04:18:54;20.25;;;10.52;;
78820;SDS011;68171;13.882;99.692;2023-05-20T04:20:04;14.80;;;10.40;;
78820;SDS011;68171;13.882;99.692;2023-05-20T04:21:10;17.30;;;11.00;;
78820;SDS011;68171;13.882;99.692;2023-05-20T04:22:15;17.17;;;11.40;;
78820;SDS011;68171;13.882;99.692;2023-05-20T04:23:20;19.20;;;11.50;;
78820;SDS011;68171;13.882;99.692;2023-05-20T04:24:26;16.55;;;10.55;;
78820;SDS011;68171;13.882;99.692;2023-05-20T04:25:30;16.77;;;11.52;;
78820;SDS011;68171;13.882;99.692;2023-05-20T04:26:38;15.70;;;9.80;;
78820;SDS011;68171;13.882;99.692;2023-05-20T04:27:44;13.35;;;10.02;;
78820;SDS011;68171;13.882;99.692;2023-05-20T04:28:50;18.30;;;10.15;;
78820;SDS011;68171;13.882;99.692;2023-05-20T04:29:54;15.38;;;10.75;;
78820;SDS011;68171;13.882;99.692;2023-05-20T04:31:00;15.40;;;11.20;;
78820;SDS011;68171;13.882;99.692;2023-05-20T04:32:06;17.52;;;10.52;;
78820;SDS011;68171;13.882;99.692;2023-05-20T04:33:12;15.67;;;10.97;;
78820;SDS011;68171;13.882;99.692;2023-05-20T04:34:17;17.20;;;10.13;;
78820;SDS011;68171;13.882;99.692;2023-05-20T04:35:28;17.45;;;10.57;;
78820;SDS011;68171;13.882;99.692;2023-05-20T04:36:33;15.82;;;10.80;;
78820;SDS011;68171;13.882;99.692;2023-05-20T04:37:40;15.52;;;9.98;;
78820;SDS011;68171;13.882;99.692;2023-05-20T04:38:46;19.35;;;10.80;;
78820;SDS011;68171;13.882;99.692;2023-05-20T04:39:53;14.18;;;9.82;;
78820;SDS011;68171;13.882;99.692;2023-05-20T04:40:57;19.65;;;10.38;;
78820;SDS011;68171;13.882;99.692;2023-05-20T04:42:04;15.07;;;10.43;;
78820;SDS011;68171;13.882;99.692;2023-05-20T04:43:10;15.05;;;9.90;;
78820;SDS011;68171;13.882;99.692;2023-05-20T04:44:16;14.80;;;10.27;;
78820;SDS011;68171;13.882;99.692;2023-05-20T04:45:21;13.30;;;9.90;;
78820;SDS011;68171;13.882;99.692;2023-05-20T04:46:27;15.98;;;10.20;;
78820;SDS011;68171;13.882;99.692;2023-05-20T04:47:33;14.73;;;9.82;;
78820;SDS011;68171;13.882;99.692;2023-05-20T04:48:40;15.15;;;10.45;;
78820;SDS011;68171;13.882;99.692;2023-05-20T04:49:45;17.40;;;10.80;;
78820;SDS011;68171;13.882;99.692;2023-05-20T04:50:52;15.52;;;10.55;;
78820;SDS011;68171;13.882;99.692;2023-05-20T04:51:56;17.83;;;11.07;;
78820;SDS011;68171;13.882;99.692;2023-05-20T04:53:02;13.07;;;10.90;;
78820;SDS011;68171;13.882;99.692;2023-05-20T04:54:07;15.52;;;10.98;;
78820;SDS011;68171;13.882;99.692;2023-05-20T04:55:12;14.37;;;10.57;;
78820;SDS011;68171;13.882;99.692;2023-05-20T04:56:17;15.17;;;10.10;;
78820;SDS011;68171;13.882;99.692;2023-05-20T04:57:23;15.88;;;10.00;;
78820;SDS011;68171;13.882;99.692;2023-05-20T04:58:29;17.75;;;10.95;;
78820;SDS011;68171;13.882;99.692;2023-05-20T04:59:36;14.63;;;10.80;;
78820;SDS011;68171;13.882;99.692;2023-05-20T05:00:40;14.80;;;10.43;;
78820;SDS011;68171;13.882;99.692;2023-05-20T05:01:46;15.90;;;10.75;;
78820;SDS011;68171;13.882;99.692;2023-05-20T05:02:51;15.23;;;9.40;;
78820;SDS011;68171;13.882;99.692;2023-05-20T05:03:57;13.85;;;10.52;;
78820;SDS011;68171;13.882;99.692;2023-05-20T05:05:01;12.55;;;9.40;;
78820;SDS011;68171;13.882;99.692;2023-05-20T05:06:08;14.80;;;10.40;;
78820;SDS011;68171;13.882;99.692;2023-05-20T05:07:12;15.57;;;10.10;;
78820;SDS011;68171;13.882;99.692;2023-05-20T05:08:18;16.77;;;10.45;;
78820;SDS011;68171;13.882;99.692;2023-05-20T05:09:23;14.88;;;10.13;;
78820;SDS011;68171;13.882;99.692;2023-05-20T05:10:28;16.02;;;9.63;;
78820;SDS011;68171;13.882;99.692;2023-05-20T05:11:33;17.65;;;9.88;;
78820;SDS011;68171;13.882;99.692;2023-05-20T05:12:39;16.02;;;10.32;;
78820;SDS011;68171;13.882;99.692;2023-05-20T05:13:45;13.25;;;9.57;;
78820;SDS011;68171;13.882;99.692;2023-05-20T05:14:51;13.07;;;9.38;;
78820;SDS011;68171;13.882;99.692;2023-05-20T05:15:58;15.88;;;10.15;;
78820;SDS011;68171;13.882;99.692;2023-05-20T05:17:04;17.13;;;10.50;;
78820;SDS011;68171;13.882;99.692;2023-05-20T05:18:09;14.57;;;10.20;;
78820;SDS011;68171;13.882;99.692;2023-05-20T05:19:15;13.52;;;10.15;;
78820;SDS011;68171;13.882;99.692;2023-05-20T05:20:19;12.68;;;10.15;;
78820;SDS011;68171;13.882;99.692;2023-05-20T05:21:25;15.13;;;10.20;;
78820;SDS011;68171;13.882;99.692;2023-05-20T05:22:30;13.73;;;10.30;;
78820;SDS011;68171;13.882;99.692;2023-05-20T05:23:38;15.18;;;10.40;;
78820;SDS011;68171;13.882;99.692;2023-05-20T05:24:44;12.23;;;9.85;;
78820;SDS011;68171;13.882;99.692;2023-05-20T05:25:50;17.67;;;9.98;;
78820;SDS011;68171;13.882;99.692;2023-05-20T05:26:55;15.55;;;10.10;;
78820;SDS011;68171;13.882;99.692;2023-05-20T05:28:01;15.63;;;9.87;;
78820;SDS011;68171;13.882;99.692;2023-05-20T05:29:07;14.90;;;9.80;;
78820;SDS011;68171;13.882;99.692;2023-05-20T05:30:13;13.85;;;9.73;;
78820;SDS011;68171;13.882;99.692;2023-05-20T05:31:18;13.68;;;10.10;;
78820;SDS011;68171;13.882;99.692;2023-05-20T05:32:23;13.80;;;10.30;;
78820;SDS011;68171;13.882;99.692;2023-05-20T05:33:28;15.63;;;9.20;;
78820;SDS011;68171;13.882;99.692;2023-05-20T05:34:34;16.25;;;9.65;;
78820;SDS011;68171;13.882;99.692;2023-05-20T05:35:39;15.30;;;9.60;;
78820;SDS011;68171;13.882;99.692;2023-05-20T05:36:45;15.10;;;9.48;;
78820;SDS011;68171;13.882;99.692;2023-05-20T05:37:51;13.60;;;10.18;;
78820;SDS011;68171;13.882;99.692;2023-05-20T05:38:55;19.50;;;10.13;;
78820;SDS011;68171;13.882;99.692;2023-05-20T05:40:01;14.77;;;10.50;;
78820;SDS011;68171;13.882;99.692;2023-05-20T05:41:06;12.95;;;9.77;;
78820;SDS011;68171;13.882;99.692;2023-05-20T05:42:15;12.35;;;9.70;;
78820;SDS011;68171;13.882;99.692;2023-05-20T05:43:19;15.15;;;9.73;;
78820;SDS011;68171;13.882;99.692;2023-05-20T05:44:27;12.48;;;10.10;;
78820;SDS011;68171;13.882;99.692;2023-05-20T05:45:31;16.90;;;9.85;;
78820;SDS011;68171;13.882;99.692;2023-05-20T05:46:37;13.18;;;10.27;;
78820;SDS011;68171;13.882;99.692;2023-05-20T05:47:42;15.38;;;10.93;;
78820;SDS011;68171;13.882;99.692;2023-05-20T05:48:47;12.73;;;9.82;;
78820;SDS011;68171;13.882;99.692;2023-05-20T05:49:52;16.83;;;10.37;;
78820;SDS011;68171;13.882;99.692;2023-05-20T05:50:58;14.43;;;10.17;;
78820;SDS011;68171;13.882;99.692;2023-05-20T05:52:03;15.75;;;10.57;;
78820;SDS011;68171;13.882;99.692;2023-05-20T05:53:09;15.43;;;10.73;;
78820;SDS011;68171;13.882;99.692;2023-05-20T05:54:14;16.88;;;10.82;;
78820;SDS011;68171;13.882;99.692;2023-05-20T05:55:19;13.88;;;10.20;;
78820;SDS011;68171;13.882;99.692;2023-05-20T05:56:25;13.07;;;10.13;;
78820;SDS011;68171;13.882;99.692;2023-05-20T05:57:31;14.02;;;9.45;;
78820;SDS011;68171;13.882;99.692;2023-05-20T05:58:36;15.57;;;10.85;;
78820;SDS011;68171;13.882;99.692;2023-05-20T05:59:44;13.85;;;10.15;;
78820;SDS011;68171;13.882;99.692;2023-05-20T06:00:50;15.00;;;10.27;;
78820;SDS011;68171;13.882;99.692;2023-05-20T06:01:56;14.10;;;9.97;;
78820;SDS011;68171;13.882;99.692;2023-05-20T06:03:01;15.88;;;10.07;;
78820;SDS011;68171;13.882;99.692;2023-05-20T06:04:07;15.48;;;10.32;;
78820;SDS011;68171;13.882;99.692;2023-05-20T06:05:11;13.23;;;10.20;;
78820;SDS011;68171;13.882;99.692;2023-05-20T06:06:17;14.60;;;10.55;;
78820;SDS011;68171;13.882;99.692;2023-05-20T06:07:22;16.35;;;10.48;;
78820;SDS011;68171;13.882;99.692;2023-05-20T06:08:28;16.63;;;10.02;;
78820;SDS011;68171;13.882;99.692;2023-05-20T06:09:32;13.77;;;10.32;;
78820;SDS011;68171;13.882;99.692;2023-05-20T06:10:38;13.90;;;9.93;;
78820;SDS011;68171;13.882;99.692;2023-05-20T06:11:43;13.03;;;9.83;;
78820;SDS011;68171;13.882;99.692;2023-05-20T06:12:49;15.73;;;9.67;;
78820;SDS011;68171;13.882;99.692;2023-05-20T06:13:53;19.20;;;9.95;;
78820;SDS011;68171;13.882;99.692;2023-05-20T06:15:00;15.10;;;10.40;;
78820;SDS011;68171;13.882;99.692;2023-05-20T06:16:05;15.60;;;10.85;;
78820;SDS011;68171;13.882;99.692;2023-05-20T06:17:11;15.68;;;10.50;;
78820;SDS011;68171;13.882;99.692;2023-05-20T06:18:16;15.52;;;9.55;;
78820;SDS011;68171;13.882;99.692;2023-05-20T06:19:21;15.55;;;11.10;;
78820;SDS011;68171;13.882;99.692;2023-05-20T06:20:26;13.65;;;10.18;;
78820;SDS011;68171;13.882;99.692;2023-05-20T06:21:32;18.73;;;10.40;;